Flight Track Log - Related Links

Times and Time Zones

All times are in EDT time to prevent confusion due to time zone crossing. See the EJM475 flight status page for this flight to view local times or setup timezone preferences in your user account.

Time Position Orientation Groundspeed Altitude Reporting Facility
EDT Latitude Longitude Course Direction KTS MPH feet Rate Location/Type
Wed 12:53:06 PM 42.6622 -83.4464 250° West 151 174 1,900  Level Cleveland Center
Wed 12:54:33 PM 42.6344 -83.5494 250° West 238 274 5,000 1,297 Climbing Cleveland Center
Wed 12:55:34 PM 42.5908 -83.6236 231° Southwest 253 291 5,100 1,810 Climbing Cleveland Center
Wed 12:56:29 PM 42.5283 -83.6289 184° South 248 285 8,500 3,176 Climbing Cleveland Center
Wed 12:57:16 PM 42.4700 -83.6261 178° South 264 304 10,500 2,299 Climbing Cleveland Center
Wed 12:58:16 PM 42.3883 -83.6392 187° South 283 326 12,600 2,100 Climbing Cleveland Center
Wed 12:59:16 PM 42.3003 -83.6603 190° South 303 349 14,700 2,100 Climbing Cleveland Center
Wed 01:00:16 PM 42.2039 -83.6778 188° South 336 387 16,800 2,100 Climbing Cleveland Center
Wed 01:01:16 PM 42.1094 -83.7014 191° South 348 400 18,900 1,850 Climbing Cleveland Center
Wed 01:02:16 PM 42.0108 -83.7217 189° South 353 406 20,500 1,600 Climbing Cleveland Center
Wed 01:03:16 PM 41.9081 -83.7444 189° South 363 418 22,100 1,600 Climbing Cleveland Center
Wed 01:04:16 PM 41.8033 -83.7644 188° South 373 429 23,700 1,850 Climbing Cleveland Center
Wed 01:05:16 PM 41.7003 -83.7900 190° South 378 435 25,800 2,250 Climbing Cleveland Center
Wed 01:06:16 PM 41.6047 -83.8519 206° Southwest 378 435 28,200 2,300 Climbing Cleveland Center
Wed 01:07:16 PM 41.5153 -83.9222 210° Southwest 378 435 30,400 1,900 Climbing Cleveland Center
Wed 01:08:16 PM 41.4275 -83.9925 211° Southwest 383 441 32,000 1,400 Climbing Cleveland Center
Wed 01:09:16 PM 41.3550 -84.0467 209° Southwest 383 441 33,200 1,600 Climbing Cleveland Center
Wed 01:09:46 PM 41.2997 -84.0958 214° Southwest 365 420 34,400 1,826 Climbing Chicago Center
Wed 01:10:48 PM 41.2358 -84.1983 230° Southwest 361 415 36,000 774 Climbing Chicago Center
Wed 01:11:50 PM 41.2006 -84.3253 250° West 369 425 36,000  Level Chicago Center
Wed 01:12:52 PM 41.1639 -84.4672 251° West 402 463 36,000  Level Chicago Center
Wed 01:13:54 PM 41.1261 -84.6161 251° West 423 487 36,000  Level Chicago Center
Wed 01:14:57 PM 41.0858 -84.7731 251° West 444 511 36,000  Level Chicago Center
Wed 01:15:59 PM 41.0428 -84.9303 250° West 452 520 36,000  Level Chicago Center
Wed 01:17:01 PM 40.9594 -85.1011 237° Southwest 456 525 36,000  Level Chicago Center
Wed 01:18:03 PM 40.8869 -85.2381 235° Southwest 454 522 36,000  Level Chicago Center
Wed 01:19:05 PM 40.8147 -85.3750 235° Southwest 455 524 36,000  Level Chicago Center
Wed 01:20:07 PM 40.7419 -85.5133 235° Southwest 457 526 36,000  Level Chicago Center
Wed 01:21:09 PM 40.6619 -85.6639 235° Southwest 459 528 36,000  Level Chicago Center
Wed 01:22:11 PM 40.5875 -85.8017 235° Southwest 464 534 36,000  Level Chicago Center
Wed 01:23:13 PM 40.5139 -85.9394 235° Southwest 465 535 36,000  Level Chicago Center
Wed 01:24:15 PM 40.4408 -86.0761 235° Southwest 461 531 36,000  Level Chicago Center
Wed 01:25:17 PM 40.3519 -86.2406 235° Southwest 465 535 36,000  Level Chicago Center
Wed 01:26:19 PM 40.2778 -86.3769 235° Southwest 464 534 36,000  Level Chicago Center
Wed 01:27:22 PM 40.2031 -86.5142 235° Southwest 467 537 36,000  Level Chicago Center
Wed 01:28:24 PM 40.1278 -86.6525 235° Southwest 471 542 36,000  Level Chicago Center
Wed 01:29:26 PM 40.0522 -86.7889 234° Southwest 470 541 36,000  Level Chicago Center
Wed 01:30:46 PM 39.9458 -86.9778 234° Southwest 469 540 36,000 296 Level Indianapolis Center
Wed 01:31:48 PM 39.8694 -87.1142 234° Southwest 469 540 36,700 976 Climbing Indianapolis Center
Wed 01:32:49 PM 39.7814 -87.2697 234° Southwest 452 520 38,000 634 Climbing Indianapolis Center
Wed 01:33:51 PM 39.7081 -87.4014 234° Southwest 451 519 38,000  Level Indianapolis Center
Wed 01:34:53 PM 39.6322 -87.5358 234° Southwest 462 532 38,000  Level Indianapolis Center
Wed 01:35:55 PM 39.5547 -87.6703 233° Southwest 466 536 38,000  Level Indianapolis Center
Wed 01:36:56 PM 39.4778 -87.8042 233° Southwest 466 536 38,000  Level Indianapolis Center
Wed 01:37:58 PM 39.4014 -87.9375 233° Southwest 464 534 38,000  Level Indianapolis Center
Wed 01:39:00 PM 39.3219 -88.0764 234° Southwest 462 532 38,000  Level Indianapolis Center
Wed 01:40:02 PM 39.2461 -88.2086 234° Southwest 459 528 38,000  Level Indianapolis Center
Wed 01:41:03 PM 39.1536 -88.3669 233° Southwest 461 531 38,000  Level Indianapolis Center
Wed 01:42:05 PM 39.0764 -88.4981 233° Southwest 460 529 38,000  Level Indianapolis Center
Wed 01:43:07 PM 39.0003 -88.6294 233° Southwest 459 528 38,000  Level Indianapolis Center
Wed 01:44:08 PM 38.9236 -88.7594 233° Southwest 456 525 38,000  Level Indianapolis Center
Wed 01:45:10 PM 38.8472 -88.8886 233° Southwest 455 524 38,000  Level Indianapolis Center
Wed 01:46:12 PM 38.7717 -89.0164 233° Southwest 452 520 38,000  Level Indianapolis Center
Wed 01:47:14 PM 38.6953 -89.1436 232° Southwest 450 518 38,000  Level Indianapolis Center
Wed 01:48:15 PM 38.6203 -89.2700 233° Southwest 447 514 38,000  Level Indianapolis Center
Wed 01:49:17 PM 38.5303 -89.4208 233° Southwest 444 511 38,000  Level Indianapolis Center
Wed 01:50:44 PM 38.4250 -89.5925 232° Southwest 443 510 38,000  Level Kansas City Center
Wed 01:51:45 PM 38.3583 -89.7047 233° Southwest 444 511 38,000  Level Kansas City Center
Wed 01:52:48 PM 38.2686 -89.8547 233° Southwest 442 509 38,000  Level Kansas City Center
Wed 01:53:52 PM 38.1925 -89.9789 232° Southwest 443 510 38,000  Level Kansas City Center
Wed 01:54:52 PM 38.1153 -90.1022 232° Southwest 444 511 38,000  Level Kansas City Center
Wed 01:55:53 PM 38.0397 -90.2258 232° Southwest 442 509 38,000  Level Kansas City Center
Wed 01:56:57 PM 37.9636 -90.3475 232° Southwest 440 506 38,000  Level Kansas City Center
Wed 01:57:58 PM 37.8867 -90.4697 231° Southwest 442 509 38,000  Level Kansas City Center
Wed 01:59:01 PM 37.8119 -90.5922 232° Southwest 441 507 38,000  Level Kansas City Center
Wed 02:00:02 PM 37.7206 -90.7378 232° Southwest 440 506 38,000  Level Kansas City Center
Wed 02:01:06 PM 37.6442 -90.8603 232° Southwest 442 509 38,000  Level Kansas City Center
Wed 02:02:07 PM 37.5733 -90.9722 231° Southwest 441 507 38,000  Level Kansas City Center
Wed 02:03:10 PM 37.4825 -91.1167 232° Southwest 438 504 38,000  Level Kansas City Center
Wed 02:04:11 PM 37.4064 -91.2369 231° Southwest 437 503 38,000  Level Kansas City Center
Wed 02:05:12 PM 37.3286 -91.3581 231° Southwest 439 505 38,000  Level Kansas City Center
Wed 02:06:16 PM 37.2525 -91.4786 232° Southwest 439 505 38,000  Level Kansas City Center
Wed 02:07:18 PM 37.1750 -91.5989 231° Southwest 440 506 38,000  Level Kansas City Center
Wed 02:08:18 PM 37.0994 -91.7183 232° Southwest 438 504 38,000  Level Kansas City Center
Wed 02:09:20 PM 37.0217 -91.8397 231° Southwest 441 507 38,000  Level Kansas City Center
Wed 02:10:24 PM 36.9442 -91.9589 231° Southwest 442 509 38,000  Level Kansas City Center
Wed 02:11:24 PM 36.8514 -92.1019 231° Southwest 439 505 38,000  Level Kansas City Center
Wed 02:12:25 PM 36.7739 -92.2200 231° Southwest 438 504 38,000  Level Kansas City Center
Wed 02:13:29 PM 36.6972 -92.3386 231° Southwest 438 504 38,000  Level Kansas City Center
Wed 02:14:36 PM 36.6033 -92.4789 230° Southwest 445 512 38,000  Level Memphis Center
Wed 02:15:36 PM 36.5264 -92.5983 231° Southwest 445 512 38,000  Level Memphis Center
Wed 02:16:36 PM 36.4556 -92.7022 230° Southwest 445 512 38,000  Level Memphis Center
Wed 02:17:36 PM 36.3761 -92.8186 230° Southwest 445 512 38,000  Level Memphis Center
Wed 02:18:36 PM 36.2986 -92.9397 232° Southwest 445 512 38,000  Level Memphis Center
Wed 02:19:36 PM 36.2211 -93.0556 230° Southwest 445 512 38,000  Level Memphis Center
Wed 02:20:36 PM 36.1414 -93.1764 231° Southwest 445 512 38,000  Level Memphis Center
Wed 02:21:36 PM 36.0617 -93.2917 229° Southwest 450 518 38,000  Level Memphis Center
Wed 02:22:36 PM 35.9839 -93.4069 230° Southwest 450 518 38,000  Level Memphis Center
Wed 02:23:36 PM 35.9058 -93.5219 230° Southwest 445 512 38,000  Level Memphis Center
Wed 02:24:36 PM 35.8256 -93.6392 230° Southwest 445 512 38,000  Level Memphis Center
Wed 02:25:36 PM 35.7453 -93.7564 230° Southwest 445 512 38,000  Level Memphis Center
Wed 02:26:36 PM 35.6672 -93.8706 230° Southwest 445 512 38,000  Level Memphis Center
Wed 02:27:36 PM 35.5867 -93.9872 230° Southwest 445 512 38,000  Level Memphis Center
Wed 02:28:36 PM 35.5061 -94.0986 228° Southwest 445 512 38,000  Level Memphis Center
Wed 02:29:36 PM 35.4297 -94.2147 231° Southwest 445 512 38,000  Level Memphis Center
Wed 02:30:36 PM 35.3428 -94.3228 225° Southwest 445 512 38,000  Level Memphis Center
Wed 02:31:36 PM 35.2500 -94.4200 221° Southwest 445 512 38,000  Level Memphis Center
Wed 02:32:36 PM 35.1569 -94.5197 221° Southwest 445 512 38,000  Level Memphis Center
Wed 02:33:30 PM 35.0667 -94.6258 224° Southwest 452 520 38,000  Level Fort Worth Center
Wed 02:34:30 PM 34.9728 -94.7253 221° Southwest 452 520 38,000  Level Fort Worth Center
Wed 02:35:30 PM 34.8831 -94.8242 222° Southwest 446 513 38,000  Level Fort Worth Center
Wed 02:36:30 PM 34.7911 -94.9206 221° Southwest 446 513 38,000  Level Fort Worth Center
Wed 02:37:30 PM 34.6928 -95.0117 217° Southwest 453 521 38,000 -397 Level Fort Worth Center
Wed 02:38:31 PM 34.5967 -95.1028 218° Southwest 447 514 37,200 -1,550 Descending Fort Worth Center
Wed 02:39:30 PM 34.4981 -95.1961 218° Southwest 448 516 34,900 -2,319 Descending Fort Worth Center
Wed 02:40:30 PM 34.4078 -95.2842 219° Southwest 443 510 32,600 -2,231 Descending Fort Worth Center
Wed 02:41:31 PM 34.3153 -95.3692 217° Southwest 438 504 30,400 -2,500 Descending Fort Worth Center
Wed 02:42:30 PM 34.2167 -95.4594 217° Southwest 438 504 27,600 -3,076 Descending Fort Worth Center
Wed 02:43:30 PM 34.1200 -95.5494 218° Southwest 438 504 24,300 -3,174 Descending Fort Worth Center
Wed 02:44:31 PM 34.0356 -95.6264 217° Southwest 443 510 21,200 -3,250 Descending Fort Worth Center
Wed 02:45:30 PM 33.9428 -95.7111 217° Southwest 432 497 17,800 -3,277 Descending Fort Worth Center
Wed 02:46:30 PM 33.8542 -95.7928 217° Southwest 426 490 14,700 -3,124 Descending Fort Worth Center
Wed 02:47:31 PM 33.7675 -95.8744 218° Southwest 414 476 11,500 -2,350 Descending Fort Worth Center
Wed 02:48:30 PM 33.6744 -95.9608 218° Southwest 390 449 10,000 -756 Descending Fort Worth Center
Wed 02:49:30 PM 33.5919 -96.0369 218° Southwest 385 443 10,000  Level Fort Worth Center
Wed 02:50:31 PM 33.5072 -96.1131 217° Southwest 390 449 10,000  Level Fort Worth Center
Wed 02:51:30 PM 33.4264 -96.1864 217° Southwest 384 442 10,000 -151 Level Fort Worth Center
Wed 02:52:30 PM 33.3561 -96.2519 218° Southwest 344 396 9,700 -496 Descending Fort Worth Center
Wed 02:53:31 PM 33.2942 -96.3075 217° Southwest 306 352 9,000 -900 Descending Fort Worth Center
Wed 02:54:30 PM 33.2403 -96.3728 225° Southwest 280 322 7,900 -1,156 Descending Fort Worth Center
Wed 02:55:20 PM 33.2000 -96.4333 232° Southwest 280 322 6,900 -1,036 Descending Dallas / Fort Worth TRACON
Wed 02:56:20 PM 33.1500 -96.5000 228° Southwest 278 320 6,000 -554 Descending Dallas / Fort Worth TRACON
Wed 02:57:30 PM 33.1106 -96.5975 244° Southwest 281 323 5,700 -500 Descending Fort Worth Center
Wed 02:58:20 PM 33.0833 -96.6500 238° Southwest 270 311 5,000 -709 Descending Dallas / Fort Worth TRACON
Wed 02:59:20 PM 33.0333 -96.7333 234° Southwest 257 296 4,400 -800 Descending Dallas / Fort Worth TRACON
Wed 03:00:20 PM 33.0000 -96.8000 239° Southwest 216 249 3,400 -700 Descending Dallas / Fort Worth TRACON
Wed 03:01:20 PM 32.9833 -96.8500 248° West 218 251 3,000 -650 Descending Dallas / Fort Worth TRACON
Wed 03:02:20 PM 32.9500 -96.9167 239° Southwest 180 207 2,100 -550 Descending Dallas / Fort Worth TRACON
Wed 03:03:20 PM 32.9167 -96.9167 180° South 151 174 1,900 -500 Descending Dallas / Fort Worth TRACON
Wed 03:04:20 PM 32.8833 -96.8833 140° Southeast 148 170 1,100 -800 Descending Dallas / Fort Worth TRACON
Wed 03:07:00 PM 32.8471 -96.8518 154° Southeast  Level Estimated

Login

Don't have an account? Register now (free) for customized features, flight alerts, and more!